Time;durP1;ratioP1;P1;durP2;ratioP2;P2;SDS_P1;SDS_P2;PMS_P1;PMS_P2;Temp;Humidity;BMP_temperature;BMP_pressure;BME280_temperature;BME280_humidity;BME280_pressure;Samples;Min_cycle;Max_cycle;Signal;HPM_P1;HPM_P2
2023/03/21 00:01:53;;;;;;;6.82;3.88;;;;;;;;;;5064399;28;20037;-74
2023/03/21 00:04:20;;;;;;;8.02;3.80;;;;;;;;;;5064301;28;20095;-75
2023/03/21 00:06:46;;;;;;;8.75;3.72;;;;;;;;;;5064363;28;20022;-75
2023/03/21 00:09:11;;;;;;;9.27;3.80;;;;;;;;;;5064223;28;20070;-75
2023/03/21 00:11:37;;;;;;;8.50;4.10;;;;;;;;;;5064338;28;20037;-73
2023/03/21 00:14:02;;;;;;;8.13;3.78;;;;;;;;;;5064136;28;20025;-75
2023/03/21 00:16:29;;;;;;;7.30;3.97;;;;;;;;;;5063866;28;20028;-75
2023/03/21 00:18:56;;;;;;;7.85;3.63;;;;;;;;;;5063955;28;20317;-74
2023/03/21 00:21:32;;;;;;;7.80;4.10;;;;;;;;;;5064076;28;20273;-75
2023/03/21 00:23:59;;;;;;;7.63;3.97;;;;;;;;;;5063172;28;20092;-76
2023/03/21 00:26:25;;;;;;;7.65;3.42;;;;;;;;;;5063872;28;20093;-74
2023/03/21 00:28:50;;;;;;;8.43;3.83;;;;;;;;;;5063317;28;20233;-75
2023/03/21 00:31:18;;;;;;;9.05;3.70;;;;;;;;;;5063588;28;20021;-75
2023/03/21 00:33:43;;;;;;;6.93;3.95;;;;;;;;;;5063450;28;20037;-74
2023/03/21 00:36:11;;;;;;;9.23;3.70;;;;;;;;;;5063334;28;20033;-74
2023/03/21 00:38:36;;;;;;;9.73;4.10;;;;;;;;;;5063199;28;20028;-73
2023/03/21 00:41:07;;;;;;;8.30;3.92;;;;;;;;;;5063185;28;20051;-74
2023/03/21 00:43:32;;;;;;;6.15;3.80;;;;;;;;;;5063256;28;20037;-75
2023/03/21 00:45:58;;;;;;;7.07;3.78;;;;;;;;;;5063586;28;20418;-75
2023/03/21 00:48:25;;;;;;;8.52;3.78;;;;;;;;;;5063616;28;20028;-74
2023/03/21 00:50:52;;;;;;;7.63;3.90;;;;;;;;;;5063102;28;20092;-74
2023/03/21 00:53:19;;;;;;;7.47;3.78;;;;;;;;;;5063370;28;20035;-75
2023/03/21 00:55:45;;;;;;;6.30;3.83;;;;;;;;;;5062976;28;20021;-73
2023/03/21 00:58:11;;;;;;;10.00;3.60;;;;;;;;;;5062758;28;20032;-74
2023/03/21 01:00:37;;;;;;;6.75;3.60;;;;;;;;;;5062999;28;20029;-74
2023/03/21 01:03:06;;;;;;;8.98;4.10;;;;;;;;;;5063292;28;20074;-73
2023/03/21 01:06:26;;;;;;;7.40;3.55;;;;;;;;;;5063283;28;20093;-75
2023/03/21 01:08:38;;;;;;;6.00;3.65;;;;;;;;;;5057484;28;20518;-75
2023/03/21 01:11:07;;;;;;;6.53;3.78;;;;;;;;;;5062982;28;20317;-76
2023/03/21 01:13:33;;;;;;;6.88;3.92;;;;;;;;;;5062590;28;20103;-75
2023/03/21 01:15:59;;;;;;;7.70;3.70;;;;;;;;;;5065563;28;20032;-74
2023/03/21 01:18:27;;;;;;;5.97;3.58;;;;;;;;;;5083021;28;20028;-73
2023/03/21 01:20:54;;;;;;;8.35;3.30;;;;;;;;;;5082496;28;20088;-77
2023/03/21 01:23:20;;;;;;;6.38;3.00;;;;;;;;;;5082975;28;20025;-75
2023/03/21 01:25:47;;;;;;;6.80;3.38;;;;;;;;;;5082845;28;20032;-76
2023/03/21 01:28:13;;;;;;;5.43;2.70;;;;;;;;;;5082660;28;20035;-75
2023/03/21 01:30:38;;;;;;;5.30;3.10;;;;;;;;;;5082384;28;20028;-75
2023/03/21 01:33:04;;;;;;;6.28;3.22;;;;;;;;;;5082825;28;20036;-76
2023/03/21 01:35:29;;;;;;;6.63;2.92;;;;;;;;;;5082585;28;20300;-75
2023/03/21 01:37:55;;;;;;;6.95;3.30;;;;;;;;;;5082395;28;20033;-74
2023/03/21 01:40:24;;;;;;;7.65;3.40;;;;;;;;;;5082585;28;20205;-74
2023/03/21 01:42:50;;;;;;;6.18;3.13;;;;;;;;;;5082568;28;20040;-74
2023/03/21 01:45:54;;;;;;;6.78;2.97;;;;;;;;;;5081459;28;20032;-75
2023/03/21 01:48:20;;;;;;;6.32;2.75;;;;;;;;;;5081278;28;20095;-76
2023/03/21 01:50:46;;;;;;;5.60;3.15;;;;;;;;;;5082025;28;20081;-76
2023/03/21 01:53:13;;;;;;;6.07;2.97;;;;;;;;;;5082078;28;20028;-76
2023/03/21 01:55:40;;;;;;;5.35;2.80;;;;;;;;;;5082201;28;20032;-76
2023/03/21 01:58:09;;;;;;;6.00;2.85;;;;;;;;;;5080849;28;20040;-75
2023/03/21 02:00:35;;;;;;;5.97;3.10;;;;;;;;;;5081764;28;20105;-76
2023/03/21 02:03:07;;;;;;;4.70;2.75;;;;;;;;;;5081841;28;20032;-77
2023/03/21 02:05:42;;;;;;;5.95;2.72;;;;;;;;;;5080109;28;20378;-75
2023/03/21 02:08:08;;;;;;;4.82;2.70;;;;;;;;;;5081533;28;20029;-75
2023/03/21 02:10:35;;;;;;;6.18;2.88;;;;;;;;;;5081588;28;20096;-74
2023/03/21 02:13:08;;;;;;;7.22;2.92;;;;;;;;;;5080352;28;20094;-74
2023/03/21 02:15:39;;;;;;;7.90;3.47;;;;;;;;;;5082037;28;20029;-74
2023/03/21 02:18:31;;;;;;;5.72;2.97;;;;;;;;;;5081656;28;20028;-73
2023/03/21 02:21:10;;;;;;;7.93;3.20;;;;;;;;;;5065487;28;20048;-75
2023/03/21 02:24:10;;;;;;;6.22;2.97;;;;;;;;;;5081824;28;20055;-75
2023/03/21 02:27:14;;;;;;;4.93;2.70;;;;;;;;;;5078172;28;20355;-74
2023/03/21 02:29:52;;;;;;;7.32;2.85;;;;;;;;;;5081610;28;20036;-75
2023/03/21 02:32:45;;;;;;;7.88;3.13;;;;;;;;;;5080916;28;20024;-76
2023/03/21 02:35:35;;;;;;;5.03;2.72;;;;;;;;;;5081162;28;20032;-73
2023/03/21 02:38:14;;;;;;;5.77;3.03;;;;;;;;;;5081584;28;20089;-73
2023/03/21 02:41:03;;;;;;;5.70;2.95;;;;;;;;;;5081092;28;20736;-73
2023/03/21 02:43:37;;;;;;;6.95;2.63;;;;;;;;;;5081582;28;20056;-74
2023/03/21 02:46:09;;;;;;;6.28;3.28;;;;;;;;;;5081529;28;20028;-73
2023/03/21 02:48:44;;;;;;;6.03;3.22;;;;;;;;;;5080341;28;20032;-74
2023/03/21 02:51:14;;;;;;;7.63;2.90;;;;;;;;;;5081421;28;20138;-75
2023/03/21 02:53:43;;;;;;;6.40;3.30;;;;;;;;;;5081486;28;20084;-73
2023/03/21 02:56:09;;;;;;;6.65;2.95;;;;;;;;;;5080892;28;20040;-73
2023/03/21 02:58:36;;;;;;;8.05;3.50;;;;;;;;;;5080438;28;20106;-74
2023/03/21 03:01:02;;;;;;;9.57;3.67;;;;;;;;;;5080792;28;20024;-73
2023/03/21 03:03:28;;;;;;;8.45;3.55;;;;;;;;;;5080290;28;20104;-73
2023/03/21 03:05:57;;;;;;;7.47;3.47;;;;;;;;;;5080477;28;20231;-72
2023/03/21 03:08:54;;;;;;;8.48;3.97;;;;;;;;;;5080699;28;20063;-72
2023/03/21 03:11:35;;;;;;;8.13;3.55;;;;;;;;;;5080547;28;20194;-73
2023/03/21 03:14:15;;;;;;;7.15;3.33;;;;;;;;;;5081274;28;20029;-73
2023/03/21 03:16:56;;;;;;;8.23;3.58;;;;;;;;;;5081110;28;20032;-73
2023/03/21 03:19:28;;;;;;;7.50;3.17;;;;;;;;;;5084218;28;20059;-72
2023/03/21 03:22:00;;;;;;;6.82;3.33;;;;;;;;;;5085183;28;20025;-73
2023/03/21 03:25:01;;;;;;;7.30;3.22;;;;;;;;;;5085219;28;20021;-73
2023/03/21 03:27:36;;;;;;;11.68;4.75;;;;;;;;;;5075684;28;20044;-70
2023/03/21 03:30:04;;;;;;;13.93;5.00;;;;;;;;;;5085072;28;20029;-72
2023/03/21 03:32:43;;;;;;;10.75;4.50;;;;;;;;;;5084767;28;20098;-72
2023/03/21 03:35:11;;;;;;;9.10;3.75;;;;;;;;;;5083866;28;20250;-71
2023/03/21 03:37:39;;;;;;;8.35;3.67;;;;;;;;;;5084290;28;20044;-72
2023/03/21 03:40:17;;;;;;;8.25;3.90;;;;;;;;;;5084494;28;20216;-72
2023/03/21 03:42:52;;;;;;;8.75;3.85;;;;;;;;;;5084594;28;20048;-72
2023/03/21 03:45:22;;;;;;;8.68;3.83;;;;;;;;;;5084507;28;20036;-73
2023/03/21 03:48:08;;;;;;;8.60;3.83;;;;;;;;;;5084723;28;20028;-72
2023/03/21 03:50:46;;;;;;;8.13;3.38;;;;;;;;;;5084494;28;20032;-72
2023/03/21 03:53:17;;;;;;;8.85;3.75;;;;;;;;;;5084311;28;20034;-71
2023/03/21 03:55:43;;;;;;;8.73;3.60;;;;;;;;;;5084320;28;20035;-71
2023/03/21 03:58:09;;;;;;;5.82;3.38;;;;;;;;;;5084008;28;20310;-71
2023/03/21 04:00:36;;;;;;;8.02;3.28;;;;;;;;;;5084545;28;20029;-72
2023/03/21 04:03:01;;;;;;;7.63;3.38;;;;;;;;;;5084402;28;20033;-73
2023/03/21 04:05:27;;;;;;;7.32;3.45;;;;;;;;;;5084342;28;20224;-72
2023/03/21 04:07:53;;;;;;;8.10;3.70;;;;;;;;;;5084078;28;20032;-72
2023/03/21 04:10:21;;;;;;;6.95;3.20;;;;;;;;;;5083888;28;20100;-72
2023/03/21 04:12:47;;;;;;;6.45;3.25;;;;;;;;;;5083676;28;20044;-72
2023/03/21 04:15:12;;;;;;;7.05;3.15;;;;;;;;;;5083790;28;20050;-72
2023/03/21 04:17:40;;;;;;;6.63;3.03;;;;;;;;;;5083995;28;20370;-71
2023/03/21 04:20:09;;;;;;;7.05;3.08;;;;;;;;;;5083461;28;20025;-71
2023/03/21 04:22:34;;;;;;;5.88;3.28;;;;;;;;;;5084116;28;20024;-72
2023/03/21 04:25:00;;;;;;;6.07;3.25;;;;;;;;;;5084261;28;20028;-73
2023/03/21 04:27:26;;;;;;;5.38;2.92;;;;;;;;;;5083854;28;20024;-72
2023/03/21 04:29:52;;;;;;;6.10;3.10;;;;;;;;;;5083398;28;20324;-72
2023/03/21 04:32:18;;;;;;;4.60;2.80;;;;;;;;;;5083856;28;20027;-72
2023/03/21 04:34:48;;;;;;;6.75;3.10;;;;;;;;;;5082857;28;20031;-72
2023/03/21 04:37:17;;;;;;;5.35;2.70;;;;;;;;;;5083737;28;20056;-71
2023/03/21 04:39:45;;;;;;;8.45;3.30;;;;;;;;;;5083790;28;20081;-72
2023/03/21 04:42:10;;;;;;;5.65;2.85;;;;;;;;;;5083560;28;20029;-72
2023/03/21 04:44:36;;;;;;;6.35;3.20;;;;;;;;;;5083316;28;20028;-72
2023/03/21 04:47:01;;;;;;;6.57;2.83;;;;;;;;;;5083379;28;20075;-72
2023/03/21 04:49:27;;;;;;;6.20;3.10;;;;;;;;;;5082953;28;20312;-73
2023/03/21 04:51:52;;;;;;;7.03;3.13;;;;;;;;;;5083349;28;20059;-72
2023/03/21 04:54:17;;;;;;;5.97;3.33;;;;;;;;;;5083383;28;20082;-72
2023/03/21 04:56:43;;;;;;;6.65;3.33;;;;;;;;;;5082900;28;20209;-72
2023/03/21 04:59:12;;;;;;;8.68;3.08;;;;;;;;;;5083405;28;20028;-72
2023/03/21 05:01:39;;;;;;;5.85;3.05;;;;;;;;;;5082527;28;20039;-72
2023/03/21 05:04:05;;;;;;;6.82;3.03;;;;;;;;;;5083174;28;20312;-71
2023/03/21 05:06:31;;;;;;;7.30;3.17;;;;;;;;;;5082941;28;20028;-71
2023/03/21 05:09:02;;;;;;;6.13;3.30;;;;;;;;;;5082892;28;20024;-71
2023/03/21 05:11:29;;;;;;;7.05;3.30;;;;;;;;;;5083210;28;20028;-73
2023/03/21 05:13:55;;;;;;;10.07;3.50;;;;;;;;;;5082948;28;20027;-72
2023/03/21 05:16:25;;;;;;;5.53;3.08;;;;;;;;;;5081835;28;20044;-72
2023/03/21 05:18:52;;;;;;;8.35;3.08;;;;;;;;;;5082503;28;20340;-72
2023/03/21 05:21:18;;;;;;;10.30;3.28;;;;;;;;;;5082655;28;20073;-73
2023/03/21 05:23:43;;;;;;;6.50;2.97;;;;;;;;;;5082495;28;20029;-72
2023/03/21 05:26:09;;;;;;;8.55;3.25;;;;;;;;;;5082798;28;20099;-72
2023/03/21 05:28:35;;;;;;;7.25;3.13;;;;;;;;;;5082578;28;20028;-73
2023/03/21 05:31:05;;;;;;;7.15;3.10;;;;;;;;;;5082752;28;20023;-72
2023/03/21 05:33:31;;;;;;;7.00;2.90;;;;;;;;;;5082661;28;20093;-72
2023/03/21 05:35:57;;;;;;;5.53;2.83;;;;;;;;;;5082740;28;20081;-72
2023/03/21 05:38:23;;;;;;;6.00;2.92;;;;;;;;;;5082458;28;20025;-71
2023/03/21 05:40:49;;;;;;;6.75;2.90;;;;;;;;;;5081595;28;20025;-73
2023/03/21 05:43:15;;;;;;;8.25;3.10;;;;;;;;;;5082311;28;20032;-72
2023/03/21 05:45:41;;;;;;;10.82;3.22;;;;;;;;;;5082667;28;20032;-71
2023/03/21 05:48:06;;;;;;;8.50;3.00;;;;;;;;;;5082345;28;20020;-72
2023/03/21 05:50:32;;;;;;;9.65;3.40;;;;;;;;;;5082308;28;20323;-72
2023/03/21 05:52:57;;;;;;;7.07;3.20;;;;;;;;;;5081159;28;20378;-72
2023/03/21 05:55:22;;;;;;;7.40;3.13;;;;;;;;;;5081193;28;20026;-71
2023/03/21 05:57:48;;;;;;;9.55;3.10;;;;;;;;;;5081441;28;20467;-71
2023/03/21 06:00:14;;;;;;;10.55;3.25;;;;;;;;;;5082033;28;20032;-72
2023/03/21 06:02:40;;;;;;;6.70;2.80;;;;;;;;;;5082029;28;20092;-72
2023/03/21 06:05:06;;;;;;;6.47;2.85;;;;;;;;;;5082206;28;20054;-73
2023/03/21 06:07:32;;;;;;;4.90;2.90;;;;;;;;;;5082094;28;20028;-73
2023/03/21 06:09:58;;;;;;;6.90;3.03;;;;;;;;;;5081961;28;20032;-73
2023/03/21 06:12:23;;;;;;;5.72;3.47;;;;;;;;;;5080716;28;20205;-72
2023/03/21 06:14:48;;;;;;;7.28;3.30;;;;;;;;;;5081893;28;20032;-72
2023/03/21 06:17:14;;;;;;;7.20;3.20;;;;;;;;;;5081956;28;20343;-73
2023/03/21 06:19:40;;;;;;;8.75;3.10;;;;;;;;;;5081525;28;20028;-72
2023/03/21 06:22:05;;;;;;;5.32;3.03;;;;;;;;;;5081778;28;20032;-75
2023/03/21 06:24:31;;;;;;;7.35;3.55;;;;;;;;;;5080596;28;20039;-70
2023/03/21 06:26:56;;;;;;;6.47;3.20;;;;;;;;;;5080611;28;20032;-73
2023/03/21 06:29:22;;;;;;;5.28;3.08;;;;;;;;;;5080496;28;20056;-70
2023/03/21 06:31:47;;;;;;;6.72;3.40;;;;;;;;;;5078415;28;20098;-72
2023/03/21 06:34:12;;;;;;;6.20;3.38;;;;;;;;;;5072801;28;20028;-71
2023/03/21 06:36:38;;;;;;;9.98;3.38;;;;;;;;;;5082838;28;20078;-71
2023/03/21 06:39:04;;;;;;;6.57;3.13;;;;;;;;;;5051010;28;20044;-73
2023/03/21 06:41:30;;;;;;;7.47;3.40;;;;;;;;;;5048818;28;20082;-73
2023/03/21 06:43:55;;;;;;;7.68;3.70;;;;;;;;;;5053582;28;20112;-77
2023/03/21 06:46:20;;;;;;;5.60;3.20;;;;;;;;;;5056277;28;20044;-75
2023/03/21 06:48:46;;;;;;;8.75;3.10;;;;;;;;;;5053525;28;20068;-74
2023/03/21 06:51:13;;;;;;;5.35;3.00;;;;;;;;;;5053007;28;20083;-70
2023/03/21 06:53:40;;;;;;;7.60;3.25;;;;;;;;;;5071316;28;20051;-69
2023/03/21 06:56:07;;;;;;;15.10;4.78;;;;;;;;;;5055502;28;20045;-70
2023/03/21 06:58:32;;;;;;;12.93;5.07;;;;;;;;;;5051388;28;20087;-77
2023/03/21 07:00:59;;;;;;;12.57;4.63;;;;;;;;;;5052040;28;20020;-74
2023/03/21 07:03:24;;;;;;;12.00;4.22;;;;;;;;;;5055763;28;20111;-74
2023/03/21 07:05:50;;;;;;;8.45;3.90;;;;;;;;;;5068142;28;20551;-77
2023/03/21 07:08:16;;;;;;;13.10;4.95;;;;;;;;;;5066874;28;20032;-76
2023/03/21 07:10:43;;;;;;;16.70;6.85;;;;;;;;;;5066425;28;20024;-73
2023/03/21 07:13:09;;;;;;;15.00;6.32;;;;;;;;;;5065893;28;20028;-77
2023/03/21 07:15:36;;;;;;;18.38;6.20;;;;;;;;;;5068288;28;20101;-76
2023/03/21 07:18:06;;;;;;;13.35;4.57;;;;;;;;;;5067464;28;20097;-77
2023/03/21 07:20:32;;;;;;;13.40;4.37;;;;;;;;;;5068222;28;20025;-77
2023/03/21 07:22:58;;;;;;;13.88;4.05;;;;;;;;;;5068545;28;20392;-76
2023/03/21 07:25:23;;;;;;;12.88;4.20;;;;;;;;;;5068394;28;20024;-77
2023/03/21 07:27:49;;;;;;;7.22;3.60;;;;;;;;;;5068731;28;20043;-76
2023/03/21 07:30:15;;;;;;;7.85;3.20;;;;;;;;;;5069264;28;20036;-77
2023/03/21 07:32:41;;;;;;;10.73;3.53;;;;;;;;;;5068533;28;20040;-76
2023/03/21 07:35:10;;;;;;;9.43;3.63;;;;;;;;;;5069412;28;20032;-76
2023/03/21 07:37:36;;;;;;;8.45;3.40;;;;;;;;;;5068814;28;20029;-76
2023/03/21 07:40:09;;;;;;;7.40;3.50;;;;;;;;;;5069063;28;20468;-77
2023/03/21 07:42:35;;;;;;;6.88;3.90;;;;;;;;;;5069372;28;20021;-74
2023/03/21 07:45:00;;;;;;;6.88;3.60;;;;;;;;;;5069350;28;20031;-76
2023/03/21 07:47:25;;;;;;;10.35;3.50;;;;;;;;;;5069396;28;20392;-76
2023/03/21 07:49:51;;;;;;;12.32;3.80;;;;;;;;;;5069211;28;20012;-76
2023/03/21 07:52:16;;;;;;;12.68;4.35;;;;;;;;;;5069282;28;20353;-75
2023/03/21 07:54:41;;;;;;;13.43;3.63;;;;;;;;;;5069301;28;20031;-75
2023/03/21 07:57:07;;;;;;;11.63;3.83;;;;;;;;;;5069105;28;20055;-77
2023/03/21 07:59:32;;;;;;;12.45;3.90;;;;;;;;;;5069445;28;20024;-76
2023/03/21 08:01:57;;;;;;;11.02;3.90;;;;;;;;;;5069364;28;20047;-77
2023/03/21 08:04:23;;;;;;;7.95;3.33;;;;;;;;;;5070149;28;20062;-77
2023/03/21 08:06:49;;;;;;;7.45;3.08;;;;;;;;;;5072841;28;20051;-77
2023/03/21 08:09:15;;;;;;;6.97;3.22;;;;;;;;;;5072598;28;20036;-76
2023/03/21 08:11:41;;;;;;;8.40;3.20;;;;;;;;;;5072540;28;20093;-74
2023/03/21 08:14:06;;;;;;;6.32;3.40;;;;;;;;;;5072592;28;20107;-76
2023/03/21 08:16:31;;;;;;;5.97;3.45;;;;;;;;;;5072905;28;20032;-74
2023/03/21 08:18:57;;;;;;;9.45;3.28;;;;;;;;;;5072900;28;20040;-73
2023/03/21 08:21:22;;;;;;;8.77;3.28;;;;;;;;;;5072400;28;20031;-77
2023/03/21 08:23:48;;;;;;;9.48;3.83;;;;;;;;;;5072617;28;20059;-76
2023/03/21 08:26:17;;;;;;;6.15;3.40;;;;;;;;;;5072354;28;20029;-77
2023/03/21 08:28:43;;;;;;;6.05;3.50;;;;;;;;;;5072377;28;20032;-77
2023/03/21 08:31:10;;;;;;;10.20;3.55;;;;;;;;;;5072075;28;20024;-76
2023/03/21 08:33:36;;;;;;;7.35;3.05;;;;;;;;;;5072547;28;20024;-76
2023/03/21 08:36:02;;;;;;;5.97;3.10;;;;;;;;;;5072266;28;20043;-76
2023/03/21 08:38:29;;;;;;;9.95;2.95;;;;;;;;;;5072472;28;20039;-77
2023/03/21 08:40:59;;;;;;;9.45;3.38;;;;;;;;;;5072404;28;20020;-77
2023/03/21 08:43:25;;;;;;;6.60;3.20;;;;;;;;;;5072122;28;20111;-76
2023/03/21 08:45:50;;;;;;;10.07;3.78;;;;;;;;;;5072018;28;20108;-75
2023/03/21 08:48:15;;;;;;;12.85;3.72;;;;;;;;;;5070976;28;20028;-77
2023/03/21 08:50:41;;;;;;;7.13;3.38;;;;;;;;;;5071840;28;20108;-77
2023/03/21 08:53:06;;;;;;;10.63;3.25;;;;;;;;;;5072046;28;20025;-76
2023/03/21 08:55:33;;;;;;;6.43;3.03;;;;;;;;;;5072073;28;20027;-77
2023/03/21 08:57:58;;;;;;;5.20;3.28;;;;;;;;;;5071866;28;20049;-77
2023/03/21 09:00:24;;;;;;;6.78;3.45;;;;;;;;;;5071715;28;20020;-77
2023/03/21 09:02:51;;;;;;;7.10;3.00;;;;;;;;;;5071804;28;20023;-77
2023/03/21 09:05:17;;;;;;;7.60;3.15;;;;;;;;;;5071530;28;20021;-77
2023/03/21 09:07:43;;;;;;;6.15;3.25;;;;;;;;;;5071812;28;20024;-77
2023/03/21 09:10:12;;;;;;;8.27;3.30;;;;;;;;;;5071496;28;20102;-76
2023/03/21 09:12:38;;;;;;;7.38;3.28;;;;;;;;;;5071743;28;20024;-77
2023/03/21 09:15:04;;;;;;;8.15;2.90;;;;;;;;;;5071513;28;20028;-77
2023/03/21 09:17:31;;;;;;;9.15;3.38;;;;;;;;;;5071791;28;20111;-77
2023/03/21 09:19:59;;;;;;;9.48;3.15;;;;;;;;;;5071543;28;20020;-77
2023/03/21 09:22:27;;;;;;;7.65;3.50;;;;;;;;;;5071616;28;20024;-77
2023/03/21 09:24:53;;;;;;;11.18;3.92;;;;;;;;;;5071264;28;20350;-77
2023/03/21 09:27:21;;;;;;;7.00;3.20;;;;;;;;;;5071142;28;20028;-76
2023/03/21 09:29:48;;;;;;;7.75;3.40;;;;;;;;;;5071204;28;20021;-77
2023/03/21 09:32:15;;;;;;;8.77;3.90;;;;;;;;;;5071144;28;20130;-77
2023/03/21 09:34:40;;;;;;;9.65;3.00;;;;;;;;;;5071129;28;20028;-76
2023/03/21 09:37:12;;;;;;;7.38;3.20;;;;;;;;;;5071253;28;20618;-77
2023/03/21 09:39:38;;;;;;;6.22;3.08;;;;;;;;;;5071322;28;20044;-76
2023/03/21 09:42:07;;;;;;;7.18;2.90;;;;;;;;;;5070672;28;20531;-76
2023/03/21 09:44:38;;;;;;;6.90;3.20;;;;;;;;;;5070985;28;20020;-77
2023/03/21 09:47:27;;;;;;;7.25;3.22;;;;;;;;;;5070692;28;20029;-77
2023/03/21 09:49:58;;;;;;;7.43;3.28;;;;;;;;;;5070744;28;20040;-76
2023/03/21 09:52:50;;;;;;;7.18;2.70;;;;;;;;;;5070747;28;20028;-76
2023/03/21 09:55:23;;;;;;;7.03;3.08;;;;;;;;;;5070742;28;20373;-77
2023/03/21 09:58:27;;;;;;;9.65;3.03;;;;;;;;;;5070596;28;20049;-78
2023/03/21 10:01:06;;;;;;;6.38;2.88;;;;;;;;;;5062048;28;20097;-77
2023/03/21 10:03:35;;;;;;;9.50;3.28;;;;;;;;;;5070528;28;20367;-76
2023/03/21 10:06:12;;;;;;;7.68;3.20;;;;;;;;;;5070345;28;20021;-77
2023/03/21 10:08:44;;;;;;;7.97;3.10;;;;;;;;;;5070708;28;20032;-74
2023/03/21 10:11:18;;;;;;;7.85;3.17;;;;;;;;;;5070339;28;20028;-76
2023/03/21 10:13:56;;;;;;;7.13;3.60;;;;;;;;;;5070502;28;20094;-78
2023/03/21 10:16:31;;;;;;;7.80;3.17;;;;;;;;;;5070284;28;20025;-76
2023/03/21 10:18:59;;;;;;;8.02;2.75;;;;;;;;;;5070647;28;20103;-77
2023/03/21 10:21:27;;;;;;;9.88;2.60;;;;;;;;;;5070224;28;20112;-77
2023/03/21 10:23:54;;;;;;;8.27;2.85;;;;;;;;;;5068819;28;20346;-76
2023/03/21 10:26:23;;;;;;;7.18;2.72;;;;;;;;;;5070025;28;20059;-76
2023/03/21 10:28:48;;;;;;;5.45;2.83;;;;;;;;;;5069938;28;20028;-75
2023/03/21 10:31:17;;;;;;;11.10;3.20;;;;;;;;;;5070029;28;20017;-77
2023/03/21 10:33:46;;;;;;;8.38;2.90;;;;;;;;;;5070204;28;20606;-77
2023/03/21 10:36:16;;;;;;;7.15;2.88;;;;;;;;;;5070038;28;20055;-77
2023/03/21 10:38:48;;;;;;;10.40;3.63;;;;;;;;;;5085828;28;20110;-77
2023/03/21 10:41:14;;;;;;;9.18;3.60;;;;;;;;;;5069937;28;20355;-77
2023/03/21 10:43:40;;;;;;;11.43;3.17;;;;;;;;;;5069671;28;20024;-76
2023/03/21 10:46:07;;;;;;;8.55;3.42;;;;;;;;;;5069773;28;20028;-76
2023/03/21 10:48:39;;;;;;;7.38;3.13;;;;;;;;;;5070216;28;20116;-77
2023/03/21 10:51:08;;;;;;;7.32;3.28;;;;;;;;;;5069902;28;20032;-76
2023/03/21 10:53:50;;;;;;;6.10;2.80;;;;;;;;;;5069757;28;20044;-78
2023/03/21 10:56:15;;;;;;;7.55;2.70;;;;;;;;;;5069520;28;20056;-76
2023/03/21 10:58:45;;;;;;;7.47;3.00;;;;;;;;;;5069945;28;20036;-75
2023/03/21 11:01:15;;;;;;;11.47;2.97;;;;;;;;;;5069596;28;20472;-73
2023/03/21 11:03:45;;;;;;;5.68;3.00;;;;;;;;;;5069778;28;20104;-74
2023/03/21 11:06:16;;;;;;;5.72;2.83;;;;;;;;;;5069747;28;20044;-76
2023/03/21 11:08:48;;;;;;;8.50;2.90;;;;;;;;;;5069992;28;20029;-74
2023/03/21 11:11:48;;;;;;;5.75;2.70;;;;;;;;;;5069776;28;20028;-74
2023/03/21 11:14:31;;;;;;;9.23;3.22;;;;;;;;;;5069834;28;20032;-77
2023/03/21 11:16:57;;;;;;;7.60;3.10;;;;;;;;;;5069653;28;20042;-77
2023/03/21 11:19:31;;;;;;;10.20;2.80;;;;;;;;;;5069828;28;20029;-75
2023/03/21 11:22:07;;;;;;;7.38;2.90;;;;;;;;;;5069540;28;20063;-75
2023/03/21 11:24:34;;;;;;;6.15;2.63;;;;;;;;;;5069568;28;20025;-76
2023/03/21 11:27:05;;;;;;;4.97;2.50;;;;;;;;;;5069298;28;20028;-73
2023/03/21 11:29:37;;;;;;;5.18;2.08;;;;;;;;;;5069917;28;20031;-73
2023/03/21 11:32:13;;;;;;;4.43;2.30;;;;;;;;;;5069610;28;20037;-75
2023/03/21 11:34:47;;;;;;;8.43;2.30;;;;;;;;;;5069585;28;20056;-74
2023/03/21 11:37:48;;;;;;;5.95;2.47;;;;;;;;;;5069342;28;20132;-73
2023/03/21 11:40:33;;;;;;;6.28;2.63;;;;;;;;;;5071216;28;20076;-75
2023/03/21 11:43:30;;;;;;;7.45;2.70;;;;;;;;;;5072701;28;20395;-73
2023/03/21 11:46:01;;;;;;;7.15;2.45;;;;;;;;;;5068890;28;20471;-74
2023/03/21 11:48:27;;;;;;;5.68;2.50;;;;;;;;;;5073111;28;20028;-77
2023/03/21 11:51:01;;;;;;;10.25;2.65;;;;;;;;;;5073353;28;20020;-73
2023/03/21 11:53:45;;;;;;;5.57;2.53;;;;;;;;;;5071659;28;20066;-73
2023/03/21 11:56:25;;;;;;;7.05;2.90;;;;;;;;;;5073093;28;20055;-78
2023/03/21 11:58:50;;;;;;;7.03;3.10;;;;;;;;;;5073049;28;20035;-77
2023/03/21 12:01:43;;;;;;;5.32;2.88;;;;;;;;;;5073081;28;20025;-77
2023/03/21 12:04:17;;;;;;;8.63;2.90;;;;;;;;;;5072861;28;20108;-77
2023/03/21 12:06:55;;;;;;;7.00;3.00;;;;;;;;;;5088114;28;20036;-77
2023/03/21 12:09:43;;;;;;;7.53;3.45;;;;;;;;;;5073026;28;20037;-76
2023/03/21 12:12:29;;;;;;;4.68;3.00;;;;;;;;;;5072543;28;20028;-74
2023/03/21 12:15:07;;;;;;;5.93;2.63;;;;;;;;;;5072785;28;20099;-76
2023/03/21 12:18:07;;;;;;;9.65;2.45;;;;;;;;;;5072657;28;20032;-74
2023/03/21 12:20:48;;;;;;;5.68;2.28;;;;;;;;;;5069597;28;20043;-75
2023/03/21 12:23:27;;;;;;;6.93;2.30;;;;;;;;;;5072320;28;20095;-77
2023/03/21 12:26:18;;;;;;;8.02;2.40;;;;;;;;;;5072534;28;20100;-75
2023/03/21 12:28:46;;;;;;;7.78;2.58;;;;;;;;;;5072204;28;20620;-73
2023/03/21 12:31:53;;;;;;;5.20;2.45;;;;;;;;;;5072676;28;20031;-75
2023/03/21 12:35:00;;;;;;;4.72;2.05;;;;;;;;;;5069124;28;20036;-76
2023/03/21 12:38:04;;;;;;;6.60;2.67;;;;;;;;;;5068817;28;20043;-74
2023/03/21 12:41:02;;;;;;;4.63;2.65;;;;;;;;;;5071825;28;20044;-75
2023/03/21 12:43:27;;;;;;;8.88;3.00;;;;;;;;;;5069764;28;20028;-77
2023/03/21 12:45:58;;;;;;;6.40;2.53;;;;;;;;;;5072242;28;20116;-78
2023/03/21 12:48:29;;;;;;;5.75;2.33;;;;;;;;;;5072077;28;20476;-76
2023/03/21 12:50:59;;;;;;;5.38;2.53;;;;;;;;;;5071917;28;20086;-77
2023/03/21 12:53:46;;;;;;;5.75;2.50;;;;;;;;;;5071882;28;20591;-76
2023/03/21 12:56:17;;;;;;;7.35;2.92;;;;;;;;;;5071830;28;20055;-77
2023/03/21 12:58:59;;;;;;;10.20;2.92;;;;;;;;;;5071556;28;20107;-76
2023/03/21 13:01:27;;;;;;;6.60;2.85;;;;;;;;;;5071838;28;20025;-76
2023/03/21 13:04:11;;;;;;;6.65;2.83;;;;;;;;;;5071319;28;20473;-77
2023/03/21 13:06:38;;;;;;;5.57;2.83;;;;;;;;;;5071934;28;20055;-76
2023/03/21 13:09:19;;;;;;;6.18;2.78;;;;;;;;;;5071486;28;20025;-76
2023/03/21 13:11:47;;;;;;;6.75;2.38;;;;;;;;;;5071543;28;20020;-76
2023/03/21 13:14:21;;;;;;;4.63;2.30;;;;;;;;;;5071331;28;20024;-76
2023/03/21 13:16:50;;;;;;;8.25;2.80;;;;;;;;;;5071801;28;20016;-77
2023/03/21 13:19:24;;;;;;;9.45;3.38;;;;;;;;;;5071393;28;20024;-76
2023/03/21 13:22:07;;;;;;;8.15;3.58;;;;;;;;;;5071329;28;20024;-76
2023/03/21 13:24:48;;;;;;;4.50;2.20;;;;;;;;;;5070943;28;20039;-75
2023/03/21 13:27:28;;;;;;;4.05;1.70;;;;;;;;;;5086773;28;20043;-75
2023/03/21 13:30:00;;;;;;;3.00;1.40;;;;;;;;;;5071350;28;20107;-75
2023/03/21 13:32:31;;;;;;;4.85;1.70;;;;;;;;;;5071247;28;20029;-76
2023/03/21 13:35:26;;;;;;;4.15;1.45;;;;;;;;;;5086792;28;20029;-75
2023/03/21 13:38:02;;;;;;;4.00;1.45;;;;;;;;;;5071141;28;20036;-74
2023/03/21 13:40:36;;;;;;;3.90;1.40;;;;;;;;;;5071114;28;20684;-75
2023/03/21 13:43:02;;;;;;;5.30;1.60;;;;;;;;;;5070706;28;20035;-74
2023/03/21 13:45:52;;;;;;;5.80;1.70;;;;;;;;;;5071017;28;20020;-74
2023/03/21 13:48:52;;;;;;;4.40;1.60;;;;;;;;;;5070891;28;20039;-75
2023/03/21 13:51:27;;;;;;;;;;;;;;;;;;5067318;28;20037;-73
2023/03/21 13:54:07;;;;;;;3.65;1.30;;;;;;;;;;5070688;28;20429;-75
2023/03/21 13:56:51;;;;;;;3.13;1.48;;;;;;;;;;5070612;28;20036;-74
2023/03/21 13:59:31;;;;;;;4.45;1.67;;;;;;;;;;5070645;28;20037;-78
2023/03/21 14:02:12;;;;;;;4.90;1.60;;;;;;;;;;5070090;28;20103;-75
2023/03/21 14:04:39;;;;;;;3.72;1.80;;;;;;;;;;5070473;28;20045;-77
2023/03/21 14:07:18;;;;;;;3.95;1.67;;;;;;;;;;5070618;28;20033;-75
2023/03/21 14:09:52;;;;;;;3.08;1.55;;;;;;;;;;5070481;28;20614;-74
2023/03/21 14:12:37;;;;;;;5.85;1.98;;;;;;;;;;5070390;28;20581;-74
2023/03/21 14:15:11;;;;;;;5.07;2.00;;;;;;;;;;5070295;28;20038;-74
2023/03/21 14:17:37;;;;;;;3.80;1.90;;;;;;;;;;5070570;28;20029;-74
2023/03/21 14:20:17;;;;;;;3.70;1.80;;;;;;;;;;5070328;28;20482;-74
2023/03/21 14:22:47;;;;;;;4.47;1.80;;;;;;;;;;5070246;28;20021;-75
2023/03/21 14:25:15;;;;;;;5.32;1.63;;;;;;;;;;5070144;28;20036;-76
2023/03/21 14:27:53;;;;;;;4.82;1.30;;;;;;;;;;5070207;28;20391;-75
2023/03/21 14:30:24;;;;;;;3.42;1.10;;;;;;;;;;5070310;28;20028;-73
2023/03/21 14:32:54;;;;;;;2.97;1.10;;;;;;;;;;5070489;28;20056;-75
2023/03/21 14:35:20;;;;;;;2.38;0.90;;;;;;;;;;5070176;28;20036;-73
2023/03/21 14:37:46;;;;;;;4.03;1.20;;;;;;;;;;5070307;28;20032;-74
2023/03/21 14:40:27;;;;;;;4.35;1.48;;;;;;;;;;5070160;28;20036;-75
2023/03/21 14:42:53;;;;;;;3.65;1.20;;;;;;;;;;5069847;28;20017;-73
2023/03/21 14:45:23;;;;;;;3.85;1.45;;;;;;;;;;5102172;28;20074;-76
2023/03/21 14:48:12;;;;;;;3.83;1.35;;;;;;;;;;5070105;28;20024;-76
2023/03/21 14:50:44;;;;;;;4.95;1.20;;;;;;;;;;5070209;28;20036;-78
2023/03/21 14:53:22;;;;;;;4.05;1.42;;;;;;;;;;5102459;28;20028;-77
2023/03/21 14:55:57;;;;;;;5.10;1.50;;;;;;;;;;5070166;28;20040;-77
2023/03/21 14:58:25;;;;;;;3.17;1.45;;;;;;;;;;5069711;28;20049;-74
2023/03/21 15:00:51;;;;;;;3.00;1.25;;;;;;;;;;5069824;28;20397;-76
2023/03/21 15:03:19;;;;;;;4.68;1.30;;;;;;;;;;5069846;28;20025;-78
2023/03/21 15:05:45;;;;;;;4.03;1.25;;;;;;;;;;5069690;28;20020;-77